sensor_id;sensor_type;location;lat;lon;timestamp;P1;durP1;ratioP1;P2;durP2;ratioP2
948;SDS011;461;51.436;7.312;2023-05-10T06:13:13;56.67;;;25.17;;
948;SDS011;461;51.436;7.312;2023-05-10T06:16:17;48.63;;;25.40;;
948;SDS011;461;51.436;7.312;2023-05-10T06:19:13;41.43;;;27.00;;
948;SDS011;461;51.436;7.312;2023-05-10T06:21:41;45.20;;;25.17;;
948;SDS011;461;51.436;7.312;2023-05-10T06:24:07;50.50;;;26.60;;
948;SDS011;461;51.436;7.312;2023-05-10T06:26:33;48.97;;;28.03;;
948;SDS011;461;51.436;7.312;2023-05-10T06:28:59;57.47;;;27.60;;
948;SDS011;461;51.436;7.312;2023-05-10T06:31:26;52.60;;;28.47;;
948;SDS011;461;51.436;7.312;2023-05-10T06:33:52;60.47;;;28.97;;
948;SDS011;461;51.436;7.312;2023-05-10T06:36:18;46.57;;;28.63;;
948;SDS011;461;51.436;7.312;2023-05-10T06:38:44;53.90;;;28.07;;
948;SDS011;461;51.436;7.312;2023-05-10T06:41:10;48.40;;;28.47;;
948;SDS011;461;51.436;7.312;2023-05-10T06:43:35;45.50;;;27.20;;
948;SDS011;461;51.436;7.312;2023-05-10T06:46:05;43.37;;;26.77;;
948;SDS011;461;51.436;7.312;2023-05-10T06:48:31;37.67;;;25.10;;
948;SDS011;461;51.436;7.312;2023-05-10T06:50:58;45.50;;;27.13;;
948;SDS011;461;51.436;7.312;2023-05-10T06:53:23;45.87;;;25.70;;
948;SDS011;461;51.436;7.312;2023-05-10T06:55:49;39.00;;;23.87;;
948;SDS011;461;51.436;7.312;2023-05-10T06:58:15;39.57;;;25.70;;
948;SDS011;461;51.436;7.312;2023-05-10T07:00:41;41.63;;;26.23;;
948;SDS011;461;51.436;7.312;2023-05-10T07:03:09;42.20;;;23.43;;
948;SDS011;461;51.436;7.312;2023-05-10T07:05:35;41.33;;;24.17;;
948;SDS011;461;51.436;7.312;2023-05-10T07:08:01;33.80;;;23.10;;
948;SDS011;461;51.436;7.312;2023-05-10T07:10:27;38.07;;;24.43;;
948;SDS011;461;51.436;7.312;2023-05-10T07:12:53;38.20;;;25.47;;
948;SDS011;461;51.436;7.312;2023-05-10T07:15:19;34.70;;;23.60;;
948;SDS011;461;51.436;7.312;2023-05-10T07:17:44;29.20;;;21.53;;
948;SDS011;461;51.436;7.312;2023-05-10T07:20:10;33.07;;;22.67;;
948;SDS011;461;51.436;7.312;2023-05-10T07:22:40;32.53;;;22.07;;
948;SDS011;461;51.436;7.312;2023-05-10T07:25:05;34.10;;;22.30;;
948;SDS011;461;51.436;7.312;2023-05-10T07:27:32;38.50;;;23.13;;
948;SDS011;461;51.436;7.312;2023-05-10T07:29:57;30.63;;;21.50;;
948;SDS011;461;51.436;7.312;2023-05-10T07:32:23;31.50;;;20.30;;
948;SDS011;461;51.436;7.312;2023-05-10T07:34:49;34.77;;;23.27;;
948;SDS011;461;51.436;7.312;2023-05-10T07:37:15;32.70;;;21.80;;
948;SDS011;461;51.436;7.312;2023-05-10T07:39:40;35.00;;;24.13;;
948;SDS011;461;51.436;7.312;2023-05-10T07:42:06;33.23;;;23.30;;
948;SDS011;461;51.436;7.312;2023-05-10T07:44:33;38.10;;;25.00;;
948;SDS011;461;51.436;7.312;2023-05-10T07:46:59;38.53;;;25.87;;
948;SDS011;461;51.436;7.312;2023-05-10T07:49:25;43.13;;;27.53;;
948;SDS011;461;51.436;7.312;2023-05-10T07:51:51;40.60;;;26.40;;
948;SDS011;461;51.436;7.312;2023-05-10T07:54:16;45.70;;;27.73;;
948;SDS011;461;51.436;7.312;2023-05-10T07:56:42;44.27;;;28.73;;
948;SDS011;461;51.436;7.312;2023-05-10T07:59:15;36.77;;;27.10;;
948;SDS011;461;51.436;7.312;2023-05-10T08:01:42;45.47;;;27.63;;
948;SDS011;461;51.436;7.312;2023-05-10T08:04:08;34.87;;;24.83;;
948;SDS011;461;51.436;7.312;2023-05-10T08:06:34;37.57;;;24.73;;
948;SDS011;461;51.436;7.312;2023-05-10T08:09:01;38.50;;;26.70;;
948;SDS011;461;51.436;7.312;2023-05-10T08:11:27;37.03;;;25.10;;
948;SDS011;461;51.436;7.312;2023-05-10T08:13:56;38.00;;;24.70;;
948;SDS011;461;51.436;7.312;2023-05-10T08:16:22;30.70;;;21.70;;
948;SDS011;461;51.436;7.312;2023-05-10T08:18:47;33.83;;;22.03;;
948;SDS011;461;51.436;7.312;2023-05-10T08:21:15;26.53;;;18.00;;
948;SDS011;461;51.436;7.312;2023-05-10T08:23:45;24.30;;;15.60;;
948;SDS011;461;51.436;7.312;2023-05-10T08:26:14;23.60;;;15.70;;
948;SDS011;461;51.436;7.312;2023-05-10T08:28:42;25.87;;;15.70;;
948;SDS011;461;51.436;7.312;2023-05-10T08:34:19;21.70;;;14.90;;
948;SDS011;461;51.436;7.312;2023-05-10T08:36:51;23.23;;;16.03;;
948;SDS011;461;51.436;7.312;2023-05-10T08:39:39;23.60;;;16.07;;
948;SDS011;461;51.436;7.312;2023-05-10T08:42:11;23.07;;;14.60;;
948;SDS011;461;51.436;7.312;2023-05-10T08:45:25;25.57;;;15.33;;
948;SDS011;461;51.436;7.312;2023-05-10T08:47:55;19.87;;;14.60;;
948;SDS011;461;51.436;7.312;2023-05-10T08:53:25;20.80;;;13.93;;
948;SDS011;461;51.436;7.312;2023-05-10T08:55:56;25.80;;;14.73;;
948;SDS011;461;51.436;7.312;2023-05-10T08:58:23;25.50;;;14.33;;
948;SDS011;461;51.436;7.312;2023-05-10T09:00:50;22.80;;;13.50;;
948;SDS011;461;51.436;7.312;2023-05-10T09:03:16;25.43;;;13.80;;
948;SDS011;461;51.436;7.312;2023-05-10T09:05:42;18.00;;;12.23;;
948;SDS011;461;51.436;7.312;2023-05-10T09:08:09;17.23;;;13.17;;
948;SDS011;461;51.436;7.312;2023-05-10T09:10:38;18.10;;;13.73;;
948;SDS011;461;51.436;7.312;2023-05-10T09:13:06;17.47;;;13.17;;
948;SDS011;461;51.436;7.312;2023-05-10T09:15:33;20.53;;;13.83;;
948;SDS011;461;51.436;7.312;2023-05-10T09:17:59;14.73;;;11.73;;
948;SDS011;461;51.436;7.312;2023-05-10T09:20:27;15.53;;;12.37;;
948;SDS011;461;51.436;7.312;2023-05-10T09:22:53;20.30;;;11.83;;
948;SDS011;461;51.436;7.312;2023-05-10T17:36:17;23.23;;;17.70;;
948;SDS011;461;51.436;7.312;2023-05-10T18:08:55;17.80;;;13.10;;
948;SDS011;461;51.436;7.312;2023-05-10T19:44:55;12.10;;;8.20;;
948;SDS011;461;51.436;7.312;2023-05-10T21:41:56;19.27;;;13.47;;
948;SDS011;461;51.436;7.312;2023-05-10T21:44:24;26.93;;;16.13;;
948;SDS011;461;51.436;7.312;2023-05-10T21:46:55;24.53;;;15.30;;
948;SDS011;461;51.436;7.312;2023-05-10T21:52:03;18.83;;;13.63;;
948;SDS011;461;51.436;7.312;2023-05-10T21:54:34;19.00;;;12.90;;
948;SDS011;461;51.436;7.312;2023-05-10T21:57:01;18.20;;;14.07;;
948;SDS011;461;51.436;7.312;2023-05-10T21:59:29;15.50;;;13.20;;
948;SDS011;461;51.436;7.312;2023-05-10T22:01:58;19.43;;;14.27;;
948;SDS011;461;51.436;7.312;2023-05-10T22:04:27;24.30;;;14.87;;
948;SDS011;461;51.436;7.312;2023-05-10T22:07:05;23.77;;;14.87;;
948;SDS011;461;51.436;7.312;2023-05-10T22:09:33;21.00;;;14.87;;
948;SDS011;461;51.436;7.312;2023-05-10T22:12:00;22.63;;;15.20;;
948;SDS011;461;51.436;7.312;2023-05-10T22:14:26;20.37;;;15.30;;
948;SDS011;461;51.436;7.312;2023-05-10T22:16:58;19.90;;;13.50;;
948;SDS011;461;51.436;7.312;2023-05-10T22:19:26;43.90;;;15.97;;
948;SDS011;461;51.436;7.312;2023-05-10T22:21:55;186.10;;;22.13;;
948;SDS011;461;51.436;7.312;2023-05-10T22:24:23;19.83;;;14.10;;
948;SDS011;461;51.436;7.312;2023-05-10T22:26:54;22.77;;;13.80;;
948;SDS011;461;51.436;7.312;2023-05-10T22:29:22;23.20;;;14.67;;
948;SDS011;461;51.436;7.312;2023-05-10T22:31:49;18.77;;;13.60;;
948;SDS011;461;51.436;7.312;2023-05-10T22:34:29;19.13;;;13.77;;
948;SDS011;461;51.436;7.312;2023-05-10T22:37:01;26.17;;;14.20;;
948;SDS011;461;51.436;7.312;2023-05-10T22:42:05;18.57;;;13.03;;
948;SDS011;461;51.436;7.312;2023-05-10T22:44:32;20.37;;;13.77;;
948;SDS011;461;51.436;7.312;2023-05-10T22:46:59;22.20;;;14.80;;
948;SDS011;461;51.436;7.312;2023-05-10T22:49:28;21.10;;;13.40;;
948;SDS011;461;51.436;7.312;2023-05-10T22:52:02;21.07;;;13.30;;
948;SDS011;461;51.436;7.312;2023-05-10T22:54:28;19.50;;;14.70;;
948;SDS011;461;51.436;7.312;2023-05-10T22:56:55;17.60;;;13.50;;
948;SDS011;461;51.436;7.312;2023-05-10T23:01:58;21.47;;;14.97;;
948;SDS011;461;51.436;7.312;2023-05-10T23:04:24;22.13;;;13.93;;
948;SDS011;461;51.436;7.312;2023-05-10T23:06:51;20.90;;;13.83;;
948;SDS011;461;51.436;7.312;2023-05-10T23:09:18;19.60;;;13.90;;
948;SDS011;461;51.436;7.312;2023-05-10T23:11:45;23.90;;;15.00;;
948;SDS011;461;51.436;7.312;2023-05-10T23:14:13;20.60;;;16.43;;
948;SDS011;461;51.436;7.312;2023-05-10T23:19:16;22.20;;;15.87;;
948;SDS011;461;51.436;7.312;2023-05-10T23:21:52;19.50;;;14.77;;
948;SDS011;461;51.436;7.312;2023-05-10T23:24:21;22.93;;;15.33;;
948;SDS011;461;51.436;7.312;2023-05-10T23:26:48;26.57;;;14.90;;
948;SDS011;461;51.436;7.312;2023-05-10T23:29:16;21.93;;;15.67;;
948;SDS011;461;51.436;7.312;2023-05-10T23:31:46;157.60;;;22.23;;
948;SDS011;461;51.436;7.312;2023-05-10T23:34:19;29.30;;;16.47;;
948;SDS011;461;51.436;7.312;2023-05-10T23:36:46;26.30;;;16.27;;
948;SDS011;461;51.436;7.312;2023-05-10T23:39:12;29.27;;;17.03;;
948;SDS011;461;51.436;7.312;2023-05-10T23:41:39;26.43;;;16.30;;
948;SDS011;461;51.436;7.312;2023-05-10T23:44:06;27.60;;;16.03;;
948;SDS011;461;51.436;7.312;2023-05-10T23:46:33;24.30;;;16.03;;
948;SDS011;461;51.436;7.312;2023-05-10T23:51:41;24.60;;;16.90;;
948;SDS011;461;51.436;7.312;2023-05-10T23:54:19;23.57;;;16.47;;
948;SDS011;461;51.436;7.312;2023-05-10T23:57:09;24.03;;;16.93;;
948;SDS011;461;51.436;7.312;2023-05-10T23:59:39;24.80;;;18.20;;
